Time;durP1;ratioP1;P1;durP2;ratioP2;P2;SDS_P1;SDS_P2;PMS_P1;PMS_P2;Temp;Humidity;BMP_temperature;BMP_pressure;BME280_temperature;BME280_humidity;BME280_pressure;Samples;Min_cycle;Max_cycle;Signal;HPM_P1;HPM_P2
2022/10/28 07:26:58;;;;;;;14.10;4.83;;;;;;;;;;12875059;22;5032139;-86
2022/10/28 07:32:00;;;;;;;11.45;5.40;;;;;;;;;;12967919;23;20019;-85
2022/10/28 07:37:01;;;;;;;9.70;5.18;;;;;;;;;;12894218;23;20452;-85
2022/10/28 07:42:02;;;;;;;12.60;6.13;;;;;;;;;;12893421;23;20005;-85
2022/10/28 07:47:03;;;;;;;12.25;5.90;;;;;;;;;;12889595;23;20009;-85
2022/10/28 07:52:04;;;;;;;12.65;7.95;;;;;;;;;;12890517;23;20040;-85
2022/10/28 07:57:05;;;;;;;10.80;7.00;;;;;;;;;;12928956;23;20097;-85
2022/10/28 08:02:06;;;;;;;16.80;9.30;;;;;;;;;;12925223;23;20008;-85
2022/10/28 08:07:07;;;;;;;16.70;9.70;;;;;;;;;;12922580;23;20496;-85
2022/10/28 08:12:12;;;;;;;12.55;9.32;;;;;;;;;;12921787;23;20027;-85
2022/10/28 08:17:13;;;;;;;14.02;8.80;;;;;;;;;;12922859;23;20035;-87
2022/10/28 08:22:17;;;;;;;12.07;7.47;;;;;;;;;;12911151;23;20028;-87
2022/10/28 08:27:18;;;;;;;13.93;8.90;;;;;;;;;;12907638;23;20008;-86
2022/10/28 08:32:19;;;;;;;13.80;9.18;;;;;;;;;;12913655;23;20001;-86
2022/10/28 08:37:20;;;;;;;11.82;9.02;;;;;;;;;;12906494;23;20011;-86
2022/10/28 08:42:27;;;;;;;14.30;9.77;;;;;;;;;;12909199;23;20370;-87
2022/10/28 08:47:51;;;;;;;10.93;4.93;;;;;;;;;;12906308;23;20096;-87
2022/10/28 08:58:35;;;;;;;15.82;8.07;;;;;;;;;;12935137;23;20004;-88
2022/10/28 09:03:47;;;;;;;13.02;5.68;;;;;;;;;;12911348;23;20040;-87
2022/10/28 09:08:50;;;;;;;12.95;5.78;;;;;;;;;;12907237;23;20004;-89
2022/10/28 09:14:11;;;;;;;10.32;5.35;;;;;;;;;;12925712;23;20038;-86
2022/10/28 09:19:13;;;;;;;14.98;5.78;;;;;;;;;;12907248;23;20014;-87
2022/10/28 09:24:25;;;;;;;8.82;5.43;;;;;;;;;;12920411;23;20012;-86
2022/10/28 09:29:48;;;;;;;14.80;5.00;;;;;;;;;;12913960;23;20016;-86
2022/10/28 09:35:00;;;;;;;25.98;13.73;;;;;;;;;;12936992;23;20000;-87
2022/10/28 09:40:17;;;;;;;10.95;4.75;;;;;;;;;;12921248;23;20008;-87
2022/10/28 09:45:20;;;;;;;15.43;5.25;;;;;;;;;;12923584;23;20018;-85
2022/10/28 09:50:23;;;;;;;11.82;4.18;;;;;;;;;;12930564;23;20028;-86
2022/10/28 09:55:34;;;;;;;11.75;4.63;;;;;;;;;;12947117;23;19988;-84
2022/10/28 10:00:35;;;;;;;14.57;4.82;;;;;;;;;;12949280;23;20000;-87
2022/10/28 10:06:00;;;;;;;15.40;4.95;;;;;;;;;;12945573;23;20008;-87
2022/10/28 10:11:42;;;;;;;13.90;4.72;;;;;;;;;;12946585;23;20008;-87
2022/10/28 10:17:03;;;;;;;10.05;4.38;;;;;;;;;;12716963;23;20006;-87
2022/10/28 10:22:07;;;;;;;13.57;5.10;;;;;;;;;;12906173;23;20004;-86
2022/10/28 10:27:24;;;;;;;10.77;4.50;;;;;;;;;;12916876;23;20016;-86
2022/10/28 10:32:27;;;;;;;10.13;4.43;;;;;;;;;;12888028;23;20008;-84
2022/10/28 10:37:29;;;;;;;13.27;4.40;;;;;;;;;;12915408;23;20040;-86
2022/10/28 10:42:30;;;;;;;6.43;3.30;;;;;;;;;;12909782;23;20070;-88
2022/10/28 10:47:32;;;;;;;11.15;4.00;;;;;;;;;;12910695;23;20039;-86
2022/10/28 10:52:33;;;;;;;11.55;4.53;;;;;;;;;;12912022;23;20007;-85
2022/10/28 10:57:41;;;;;;;10.10;4.78;;;;;;;;;;12908063;23;20083;-86
2022/10/28 11:02:48;;;;;;;12.52;4.40;;;;;;;;;;12911034;23;20024;-85
2022/10/28 11:08:21;;;;;;;11.07;4.45;;;;;;;;;;12909470;23;19996;-86
2022/10/28 11:18:51;;;;;;;28.13;22.35;;;;;;;;;;12743921;23;20013;-86
2022/10/28 11:24:03;;;;;;;14.88;4.70;;;;;;;;;;12911873;23;20011;-84
2022/10/28 11:29:52;;;;;;;14.13;5.35;;;;;;;;;;12910479;23;20047;-86
2022/10/28 11:35:00;;;;;;;11.10;4.10;;;;;;;;;;12907494;23;20012;-86
2022/10/28 11:40:12;;;;;;;14.27;4.30;;;;;;;;;;12912699;23;20052;-86
2022/10/28 11:45:22;;;;;;;13.20;4.30;;;;;;;;;;12910690;23;20019;-86
2022/10/28 11:50:26;;;;;;;9.63;4.43;;;;;;;;;;12938761;23;20004;-87
2022/10/28 11:55:42;;;;;;;10.30;4.18;;;;;;;;;;12915608;23;20003;-86
2022/10/28 12:01:02;;;;;;;8.00;3.80;;;;;;;;;;12925933;23;20100;-85
2022/10/28 12:06:25;;;;;;;13.68;5.47;;;;;;;;;;12917955;23;20031;-86
2022/10/28 12:11:29;;;;;;;12.25;3.92;;;;;;;;;;12914652;23;20020;-86
2022/10/28 12:17:11;;;;;;;16.30;4.65;;;;;;;;;;12919718;23;20016;-86
2022/10/28 12:56:52;;;;;;;12.10;4.00;;;;;;;;;;12808859;23;20016;-89
2022/10/28 13:30:34;;;;;;;9.70;4.90;;;;;;;;;;12854157;23;20029;-83
2022/10/28 13:41:49;;;;;;;13.35;4.68;;;;;;;;;;12853617;23;20107;-86
2022/10/28 13:47:23;;;;;;;11.68;4.82;;;;;;;;;;12850563;23;20402;-86
2022/10/28 13:52:46;;;;;;;17.60;4.95;;;;;;;;;;12798749;23;20409;-88
2022/10/28 14:15:29;;;;;;;16.05;4.88;;;;;;;;;;12801732;23;20001;-86
2022/10/28 14:21:00;;;;;;;14.82;4.43;;;;;;;;;;12800648;23;20033;-85
2022/10/28 14:43:30;;;;;;;16.00;5.10;;;;;;;;;;12799541;23;20013;-87
2022/10/28 14:49:20;;;;;;;16.25;5.82;;;;;;;;;;12615731;23;20018;-87
2022/10/28 15:12:02;;;;;;;10.00;4.50;;;;;;;;;;12800382;23;20017;-87
2022/10/28 15:17:27;;;;;;;14.25;5.20;;;;;;;;;;12795894;23;20009;-87
2022/10/28 15:22:32;;;;;;;12.98;4.95;;;;;;;;;;12826240;23;20013;-87
2022/10/28 15:27:40;;;;;;;15.27;5.50;;;;;;;;;;12801184;23;20005;-87
2022/10/28 15:32:41;;;;;;;14.60;5.78;;;;;;;;;;12804217;23;20016;-86
2022/10/28 15:37:43;;;;;;;12.27;5.43;;;;;;;;;;12806098;23;20067;-87
2022/10/28 15:42:48;;;;;;;11.77;5.05;;;;;;;;;;12804457;23;20456;-88
2022/10/28 15:47:50;;;;;;;12.73;4.60;;;;;;;;;;12805426;23;20374;-87
2022/10/28 15:52:52;;;;;;;13.27;4.63;;;;;;;;;;12804484;23;20012;-88
2022/10/28 15:57:55;;;;;;;11.05;4.43;;;;;;;;;;12803687;23;20013;-88
2022/10/28 16:02:56;;;;;;;10.15;4.55;;;;;;;;;;12804572;23;20009;-86
2022/10/28 16:08:00;;;;;;;14.57;4.70;;;;;;;;;;12803037;23;20079;-87
2022/10/28 16:13:03;;;;;;;11.63;4.47;;;;;;;;;;12803352;23;20028;-88
2022/10/28 16:18:05;;;;;;;14.18;5.68;;;;;;;;;;12803655;23;20005;-87
2022/10/28 16:23:12;;;;;;;10.85;3.83;;;;;;;;;;12807174;23;20067;-87
2022/10/28 16:28:20;;;;;;;11.02;4.20;;;;;;;;;;12815652;23;20019;-87
2022/10/28 16:33:26;;;;;;;17.58;4.47;;;;;;;;;;12819019;23;20063;-88
2022/10/28 16:38:29;;;;;;;12.75;4.43;;;;;;;;;;12823040;23;20151;-89
2022/10/28 16:43:30;;;;;;;8.10;4.25;;;;;;;;;;12822095;23;20005;-89
2022/10/28 16:48:31;;;;;;;10.05;4.13;;;;;;;;;;12833046;23;20016;-89
2022/10/28 16:53:32;;;;;;;8.43;4.15;;;;;;;;;;12833594;23;20011;-90
2022/10/28 16:58:33;;;;;;;48.95;34.88;;;;;;;;;;12822409;23;20044;-89
2022/10/28 17:03:35;;;;;;;13.98;7.57;;;;;;;;;;12821679;23;20012;-88
2022/10/28 17:08:36;;;;;;;11.98;5.47;;;;;;;;;;12822029;23;20044;-88
2022/10/28 17:13:37;;;;;;;8.30;4.45;;;;;;;;;;12821935;23;19997;-88
2022/10/28 17:18:39;;;;;;;11.60;5.18;;;;;;;;;;12823208;23;20009;-89
2022/10/28 17:23:40;;;;;;;16.25;5.15;;;;;;;;;;12823185;23;20005;-89
2022/10/28 17:28:41;;;;;;;10.05;4.90;;;;;;;;;;12822795;23;20028;-89
2022/10/28 17:33:42;;;;;;;13.68;5.80;;;;;;;;;;12831344;23;19990;-90
2022/10/28 17:38:43;;;;;;;9.77;4.85;;;;;;;;;;12856106;23;20008;-93
2022/10/28 17:43:44;;;;;;;11.23;4.90;;;;;;;;;;12850658;23;20382;-89
2022/10/28 17:48:45;;;;;;;10.30;5.35;;;;;;;;;;12820507;23;20013;-89
2022/10/28 17:53:46;;;;;;;10.52;4.75;;;;;;;;;;12820339;23;20024;-90
2022/10/28 17:58:48;;;;;;;8.85;4.32;;;;;;;;;;12819105;23;20040;-89
2022/10/28 18:03:49;;;;;;;13.23;6.47;;;;;;;;;;12819594;23;20036;-89
2022/10/28 18:08:50;;;;;;;10.50;5.28;;;;;;;;;;12817348;23;20005;-90
2022/10/28 18:13:54;;;;;;;6.95;4.30;;;;;;;;;;12820234;23;20493;-91
2022/10/28 18:18:55;;;;;;;8.38;4.72;;;;;;;;;;12820392;23;20009;-90
2022/10/28 18:24:02;;;;;;;12.27;6.05;;;;;;;;;;12818958;23;20385;-91
2022/10/28 18:29:04;;;;;;;11.02;5.40;;;;;;;;;;12823008;23;20000;-90
2022/10/28 18:34:06;;;;;;;9.23;5.07;;;;;;;;;;12819641;23;20029;-90
2022/10/28 18:39:08;;;;;;;8.32;4.28;;;;;;;;;;12822460;23;20012;-90
2022/10/28 18:44:10;;;;;;;9.45;4.60;;;;;;;;;;12830020;23;20001;-90
